Time,TemperatureF,DewpointF,PressureIn,WindDirection,WindDirectionDegrees,WindSpeedMPH,WindSpeedGustMPH,Humidity,HourlyPrecipIn,Conditions,Clouds,dailyrainin,SoftwareType,DateUTC
2013-03-09 00:01:00,37.6,36.5,30.26,SE,136,0.0,0.0,96,0.00,,,0.00,meteohub,2013-03-09 08:01:00,
2013-03-09 00:06:00,37.6,36.5,30.26,SE,136,0.0,0.0,96,0.00,,,0.00,meteohub,2013-03-09 08:06:00,
2013-03-09 00:11:00,37.4,36.3,30.26,SE,136,0.0,0.0,96,0.00,,,0.00,meteohub,2013-03-09 08:11:00,
2013-03-09 00:16:00,37.4,36.3,30.26,SE,136,0.0,0.0,96,0.00,,,0.00,meteohub,2013-03-09 08:16:00,
2013-03-09 00:21:00,37.4,36.3,30.26,SE,135,0.0,0.0,96,0.00,,,0.00,meteohub,2013-03-09 08:21:00,
2013-03-09 00:26:00,37.4,36.3,30.26,SE,136,0.0,0.0,96,0.00,,,0.00,meteohub,2013-03-09 08:26:00,
2013-03-09 00:31:00,37.2,36.5,30.26,SE,135,0.0,0.0,97,0.00,,,0.00,meteohub,2013-03-09 08:31:00,
2013-03-09 00:36:00,37.2,36.5,30.26,SE,136,0.0,0.0,97,0.00,,,0.00,meteohub,2013-03-09 08:36:00,
2013-03-09 00:41:00,37.2,36.5,30.26,SE,136,0.0,0.0,97,0.00,,,0.00,meteohub,2013-03-09 08:41:00,
2013-03-09 00:46:00,37.2,36.5,30.26,SE,136,0.0,0.0,97,0.00,,,0.00,meteohub,2013-03-09 08:46:00,
2013-03-09 00:51:00,37.0,36.3,30.26,SE,135,0.0,0.0,97,0.00,,,0.00,meteohub,2013-03-09 08:51:00,
2013-03-09 00:56:00,36.9,36.1,30.29,SE,136,0.0,0.0,97,0.00,,,0.00,meteohub,2013-03-09 08:56:00,
2013-03-09 01:02:00,36.9,36.1,30.29,SE,136,0.0,0.0,97,0.00,,,0.00,meteohub,2013-03-09 09:02:00,
2013-03-09 01:07:00,36.9,36.1,30.29,SE,136,0.0,0.0,97,0.00,,,0.00,meteohub,2013-03-09 09:07:00,
2013-03-09 01:12:00,36.9,36.1,30.29,SE,136,0.0,0.0,97,0.00,,,0.00,meteohub,2013-03-09 09:12:00,
2013-03-09 01:17:00,36.9,36.1,30.29,SE,136,0.0,0.0,97,0.00,,,0.00,meteohub,2013-03-09 09:17:00,
2013-03-09 01:22:00,36.9,36.1,30.29,SE,136,0.0,0.0,97,0.00,,,0.00,meteohub,2013-03-09 09:22:00,
2013-03-09 01:27:00,36.9,36.3,30.29,SE,136,0.0,0.0,98,0.00,,,0.00,meteohub,2013-03-09 09:27:00,
2013-03-09 01:32:00,36.7,36.1,30.29,SE,135,0.0,0.0,98,0.00,,,0.00,meteohub,2013-03-09 09:32:00,
2013-03-09 01:37:00,36.7,36.1,30.29,SE,136,0.0,0.0,98,0.00,,,0.00,meteohub,2013-03-09 09:37:00,
2013-03-09 01:42:00,36.7,36.1,30.29,SE,136,0.0,0.0,98,0.00,,,0.00,meteohub,2013-03-09 09:42:00,
2013-03-09 01:47:00,36.9,36.3,30.29,SE,136,0.0,0.0,98,0.00,,,0.00,meteohub,2013-03-09 09:47:00,
2013-03-09 01:52:00,36.7,36.1,30.29,SE,136,0.0,0.0,98,0.00,,,0.00,meteohub,2013-03-09 09:52:00,
2013-03-09 01:57:00,36.7,36.1,30.29,SE,135,0.0,0.0,98,0.00,,,0.00,meteohub,2013-03-09 09:57:00,
2013-03-09 02:02:00,36.7,36.1,30.29,SE,136,0.0,0.0,98,0.00,,,0.00,meteohub,2013-03-09 10:02:00,
2013-03-09 02:07:00,36.7,36.1,30.29,SE,136,0.0,0.0,98,0.00,,,0.00,meteohub,2013-03-09 10:07:00,
2013-03-09 02:12:00,36.5,36.0,30.29,SE,136,0.0,0.0,98,0.00,,,0.00,meteohub,2013-03-09 10:12:00,
2013-03-09 02:17:00,36.5,36.0,30.29,SE,136,0.0,0.0,98,0.00,,,0.00,meteohub,2013-03-09 10:17:00,
2013-03-09 02:22:00,36.3,35.8,30.29,SE,136,0.0,0.0,98,0.00,,,0.00,meteohub,2013-03-09 10:22:00,
2013-03-09 02:27:00,36.3,35.8,30.29,SE,135,0.0,0.0,98,0.00,,,0.00,meteohub,2013-03-09 10:27:00,
2013-03-09 02:32:00,36.3,35.8,30.29,SE,135,0.0,0.0,98,0.00,,,0.00,meteohub,2013-03-09 10:32:00,
2013-03-09 02:37:00,36.3,35.8,30.29,SE,136,0.0,0.0,98,0.00,,,0.00,meteohub,2013-03-09 10:37:00,
2013-03-09 02:42:00,36.1,35.6,30.29,SE,136,0.0,0.0,98,0.00,,,0.00,meteohub,2013-03-09 10:42:00,
2013-03-09 02:47:00,36.1,35.6,30.29,SE,136,0.0,0.0,98,0.00,,,0.00,meteohub,2013-03-09 10:47:00,
2013-03-09 02:52:00,36.1,35.6,30.29,SE,136,0.0,0.0,98,0.00,,,0.00,meteohub,2013-03-09 10:52:00,
2013-03-09 02:57:00,36.1,35.6,30.29,SE,136,0.0,0.0,98,0.00,,,0.00,meteohub,2013-03-09 10:57:00,
2013-03-09 03:02:00,36.1,35.6,30.29,SE,136,0.0,0.0,98,0.00,,,0.00,meteohub,2013-03-09 11:02:00,
2013-03-09 03:07:00,36.1,35.6,30.32,SE,136,0.0,0.0,98,0.00,,,0.00,meteohub,2013-03-09 11:07:00,
2013-03-09 03:12:00,36.0,35.4,30.32,SE,136,0.0,0.0,98,0.00,,,0.00,meteohub,2013-03-09 11:12:00,
2013-03-09 03:17:00,36.0,35.4,30.32,SE,136,0.0,0.0,98,0.00,,,0.00,meteohub,2013-03-09 11:17:00,
2013-03-09 03:22:00,35.8,35.2,30.32,SE,136,0.0,0.0,98,0.00,,,0.00,meteohub,2013-03-09 11:22:00,
2013-03-09 03:27:00,35.6,35.1,30.32,SE,136,0.0,0.0,98,0.00,,,0.00,meteohub,2013-03-09 11:27:00,
2013-03-09 03:32:00,35.6,35.1,30.32,SE,136,0.0,0.0,98,0.00,,,0.00,meteohub,2013-03-09 11:32:00,
2013-03-09 03:37:00,35.6,35.1,30.29,SE,135,0.0,0.0,98,0.00,,,0.00,meteohub,2013-03-09 11:37:00,
2013-03-09 03:42:00,35.6,35.1,30.29,SE,136,0.0,0.0,98,0.00,,,0.00,meteohub,2013-03-09 11:42:00,
2013-03-09 03:47:00,35.6,35.1,30.29,SE,136,0.0,0.0,98,0.00,,,0.00,meteohub,2013-03-09 11:47:00,
2013-03-09 03:52:00,35.4,34.9,30.32,SE,136,0.0,0.0,98,0.00,,,0.00,meteohub,2013-03-09 11:52:00,
2013-03-09 03:57:00,35.4,34.9,30.32,SE,136,0.0,0.0,98,0.00,,,0.00,meteohub,2013-03-09 11:57:00,
2013-03-09 04:02:00,35.4,34.9,30.32,SE,136,0.0,0.0,98,0.00,,,0.00,meteohub,2013-03-09 12:02:00,
2013-03-09 04:07:00,35.4,34.9,30.32,SE,135,0.0,0.0,98,0.00,,,0.00,meteohub,2013-03-09 12:07:00,
2013-03-09 04:12:00,35.4,34.9,30.32,SE,136,0.0,0.0,98,0.00,,,0.00,meteohub,2013-03-09 12:12:00,
2013-03-09 04:17:00,35.4,34.9,30.32,SE,136,0.0,0.0,98,0.00,,,0.00,meteohub,2013-03-09 12:17:00,
2013-03-09 04:22:00,35.2,34.7,30.32,SE,136,0.0,0.0,98,0.00,,,0.00,meteohub,2013-03-09 12:22:00,
2013-03-09 04:27:00,35.4,34.9,30.32,SE,136,0.0,0.0,98,0.00,,,0.00,meteohub,2013-03-09 12:27:00,
2013-03-09 04:32:00,35.6,35.1,30.32,SE,136,0.0,0.0,98,0.00,,,0.00,meteohub,2013-03-09 12:32:00,
2013-03-09 04:37:00,35.6,35.1,30.32,SE,136,0.0,0.0,98,0.00,,,0.00,meteohub,2013-03-09 12:37:00,
2013-03-09 04:42:00,35.6,35.1,30.32,SE,136,0.0,0.0,98,0.00,,,0.00,meteohub,2013-03-09 12:42:00,
2013-03-09 04:47:00,35.6,35.1,30.32,SE,136,0.0,0.0,98,0.00,,,0.00,meteohub,2013-03-09 12:47:00,
2013-03-09 04:52:00,35.6,35.1,30.32,SE,135,0.0,0.0,98,0.00,,,0.00,meteohub,2013-03-09 12:52:00,
2013-03-09 04:57:00,35.6,35.1,30.32,SE,136,0.0,0.0,98,0.00,,,0.00,meteohub,2013-03-09 12:57:00,
2013-03-09 05:02:00,35.6,35.1,30.32,SE,136,0.0,0.0,98,0.00,,,0.00,meteohub,2013-03-09 13:02:00,
2013-03-09 05:07:00,35.6,35.1,30.35,SE,135,0.0,0.0,98,0.00,,,0.00,meteohub,2013-03-09 13:07:00,
2013-03-09 05:12:00,35.8,35.2,30.35,SE,136,0.0,0.0,98,0.00,,,0.00,meteohub,2013-03-09 13:12:00,
2013-03-09 05:17:00,36.0,35.4,30.35,SE,136,0.0,0.0,98,0.00,,,0.00,meteohub,2013-03-09 13:17:00,
2013-03-09 05:22:00,35.8,35.2,30.35,SE,136,0.0,0.0,98,0.00,,,0.00,meteohub,2013-03-09 13:22:00,
2013-03-09 05:27:00,35.8,35.2,30.35,SE,136,0.0,0.0,98,0.00,,,0.00,meteohub,2013-03-09 13:27:00,
2013-03-09 05:32:00,35.6,35.1,30.35,SE,136,0.0,0.0,98,0.00,,,0.00,meteohub,2013-03-09 13:32:00,
2013-03-09 05:37:00,35.6,35.1,30.35,SE,136,0.0,0.0,98,0.00,,,0.00,meteohub,2013-03-09 13:37:00,
2013-03-09 05:42:00,35.4,34.9,30.35,SE,136,0.0,0.0,98,0.00,,,0.00,meteohub,2013-03-09 13:42:00,
2013-03-09 05:47:00,35.4,34.9,30.35,SE,136,0.0,0.0,98,0.00,,,0.00,meteohub,2013-03-09 13:47:00,
2013-03-09 05:52:00,35.4,34.9,30.35,SE,136,0.0,0.0,98,0.00,,,0.00,meteohub,2013-03-09 13:52:00,
2013-03-09 05:58:00,35.6,35.1,30.35,SW,214,0.0,0.0,98,0.00,,,0.00,meteohub,2013-03-09 13:58:00,
2013-03-09 06:03:00,35.6,35.1,30.35,SSE,167,0.0,4.0,98,0.00,,,0.00,meteohub,2013-03-09 14:03:00,
2013-03-09 06:08:00,35.4,34.9,30.35,SSE,167,0.0,4.0,98,0.00,,,0.00,meteohub,2013-03-09 14:08:00,
2013-03-09 06:13:00,35.6,35.1,30.35,SSE,167,0.0,4.0,98,0.00,,,0.00,meteohub,2013-03-09 14:13:00,
2013-03-09 06:18:00,35.6,35.1,30.35,SSE,167,0.0,0.0,98,0.00,,,0.00,meteohub,2013-03-09 14:18:00,
2013-03-09 06:23:00,35.6,35.1,30.35,SSE,167,0.0,0.0,98,0.00,,,0.00,meteohub,2013-03-09 14:23:00,
2013-03-09 06:28:00,35.6,35.1,30.35,SSE,167,0.0,0.0,98,0.00,,,0.00,meteohub,2013-03-09 14:28:00,
2013-03-09 06:33:00,35.4,34.9,30.35,SSE,168,0.0,0.0,98,0.00,,,0.00,meteohub,2013-03-09 14:33:00,
2013-03-09 06:38:00,35.4,34.9,30.35,SSE,167,0.0,0.0,98,0.00,,,0.00,meteohub,2013-03-09 14:38:00,
2013-03-09 06:43:00,35.2,34.7,30.35,SSE,167,0.0,0.0,98,0.00,,,0.00,meteohub,2013-03-09 14:43:00,
2013-03-09 06:48:00,35.2,34.7,30.35,SSE,167,0.0,0.0,98,0.00,,,0.00,meteohub,2013-03-09 14:48:00,
2013-03-09 06:53:00,35.1,34.5,30.38,SSE,167,0.0,0.0,98,0.00,,,0.00,meteohub,2013-03-09 14:53:00,
2013-03-09 06:58:00,34.9,34.3,30.38,SSE,167,0.0,0.0,98,0.00,,,0.00,meteohub,2013-03-09 14:58:00,
2013-03-09 07:03:00,35.1,34.5,30.38,SSE,167,0.0,0.0,98,0.00,,,0.00,meteohub,2013-03-09 15:03:00,
2013-03-09 07:08:00,35.1,34.5,30.38,SSE,168,0.0,0.0,98,0.00,,,0.00,meteohub,2013-03-09 15:08:00,
2013-03-09 07:13:00,35.2,34.7,30.38,SSE,167,0.0,0.0,98,0.00,,,0.00,meteohub,2013-03-09 15:13:00,
2013-03-09 07:18:00,35.6,35.1,30.38,SSE,167,0.0,0.0,98,0.00,,,0.00,meteohub,2013-03-09 15:18:00,
2013-03-09 07:23:00,35.8,35.2,30.38,SSE,167,0.0,0.0,98,0.00,,,0.00,meteohub,2013-03-09 15:23:00,
2013-03-09 07:28:00,36.0,35.4,30.38,SSE,167,0.0,0.0,98,0.00,,,0.00,meteohub,2013-03-09 15:28:00,
2013-03-09 07:33:00,36.1,35.6,30.38,SSE,167,0.0,0.0,98,0.00,,,0.00,meteohub,2013-03-09 15:33:00,
2013-03-09 07:38:00,36.1,35.6,30.38,SSE,167,0.0,0.0,98,0.00,,,0.00,meteohub,2013-03-09 15:38:00,
2013-03-09 07:43:00,36.3,35.8,30.38,SSE,167,0.0,0.0,98,0.00,,,0.00,meteohub,2013-03-09 15:43:00,
2013-03-09 07:48:00,36.5,36.0,30.38,SSE,167,0.0,0.0,98,0.00,,,0.00,meteohub,2013-03-09 15:48:00,
2013-03-09 07:53:00,36.9,36.3,30.41,WSW,241,0.0,0.0,98,0.00,,,0.00,meteohub,2013-03-09 15:53:00,
2013-03-09 07:58:00,37.2,36.7,30.41,NNW,344,3.0,4.0,98,0.00,,,0.00,meteohub,2013-03-09 15:58:00,
2013-03-09 08:03:00,37.6,37.0,30.41,NNW,348,3.0,4.0,98,0.00,,,0.00,meteohub,2013-03-09 16:03:00,
2013-03-09 08:08:00,37.8,37.2,30.41,NNW,348,2.0,4.0,98,0.00,,,0.00,meteohub,2013-03-09 16:08:00,
2013-03-09 08:13:00,37.8,37.2,30.41,NNW,348,0.0,4.0,98,0.00,,,0.00,meteohub,2013-03-09 16:13:00,
2013-03-09 08:18:00,37.8,37.2,30.41,NNW,348,0.0,4.0,98,0.00,,,0.00,meteohub,2013-03-09 16:18:00,
2013-03-09 08:23:00,37.9,37.4,30.41,North,349,0.0,3.0,98,0.00,,,0.00,meteohub,2013-03-09 16:23:00,
2013-03-09 08:28:00,38.3,37.8,30.41,NNW,348,0.0,0.0,98,0.00,,,0.00,meteohub,2013-03-09 16:28:00,
2013-03-09 08:33:00,38.7,38.1,30.41,NNW,348,0.0,0.0,98,0.00,,,0.00,meteohub,2013-03-09 16:33:00,
2013-03-09 08:38:00,38.8,38.3,30.41,NNW,348,0.0,0.0,98,0.00,,,0.00,meteohub,2013-03-09 16:38:00,
2013-03-09 08:43:00,39.2,38.7,30.41,North,349,2.0,0.0,98,0.00,,,0.00,meteohub,2013-03-09 16:43:00,
2013-03-09 08:48:00,39.4,38.8,30.41,NE,38,3.0,0.0,98,0.00,,,0.00,meteohub,2013-03-09 16:48:00,
2013-03-09 08:53:00,39.7,39.2,30.41,NE,38,3.0,4.0,98,0.00,,,0.00,meteohub,2013-03-09 16:53:00,
2013-03-09 08:58:00,39.2,38.7,30.41,ESE,119,4.0,4.0,98,0.00,,,0.00,meteohub,2013-03-09 16:58:00,
2013-03-09 09:03:00,39.2,38.7,30.41,ESE,119,4.0,4.0,98,0.00,,,0.00,meteohub,2013-03-09 17:03:00,
2013-03-09 09:08:00,38.8,38.3,30.44,ESE,119,0.0,4.0,98,0.00,,,0.00,meteohub,2013-03-09 17:08:00,
2013-03-09 09:13:00,39.4,38.8,30.44,ESE,104,0.0,4.0,98,0.00,,,0.00,meteohub,2013-03-09 17:13:00,
2013-03-09 09:18:00,39.9,39.4,30.44,ESE,117,0.0,4.0,98,0.00,,,0.00,meteohub,2013-03-09 17:18:00,
2013-03-09 09:23:00,40.3,39.7,30.44,ENE,68,2.0,3.0,98,0.00,,,0.00,meteohub,2013-03-09 17:23:00,
2013-03-09 09:28:00,40.5,39.9,30.44,ENE,57,4.0,6.0,98,0.00,,,0.00,meteohub,2013-03-09 17:28:00,
2013-03-09 09:34:00,40.8,40.3,30.44,ENE,57,3.0,6.0,98,0.00,,,0.00,meteohub,2013-03-09 17:34:00,
2013-03-09 09:39:00,41.0,40.5,30.44,ENE,57,0.0,6.0,98,0.00,,,0.00,meteohub,2013-03-09 17:39:00,
2013-03-09 09:44:00,40.6,40.1,30.44,SE,140,3.0,5.0,98,0.00,,,0.00,meteohub,2013-03-09 17:44:00,
2013-03-09 09:49:00,41.0,40.5,30.44,East,101,4.0,5.0,98,0.00,,,0.00,meteohub,2013-03-09 17:49:00,
2013-03-09 09:54:00,41.2,40.6,30.44,East,97,4.0,5.0,98,0.00,,,0.00,meteohub,2013-03-09 17:54:00,
2013-03-09 09:59:00,41.5,41.0,30.44,East,94,2.0,5.0,98,0.00,,,0.00,meteohub,2013-03-09 17:59:00,
2013-03-09 10:04:00,41.5,41.0,30.44,East,92,4.0,5.0,98,0.00,,,0.00,meteohub,2013-03-09 18:04:00,
2013-03-09 10:09:00,41.5,41.0,30.44,ESE,122,0.0,6.0,98,0.00,,,0.00,meteohub,2013-03-09 18:09:00,
2013-03-09 10:14:00,41.2,40.5,30.44,East,97,0.0,6.0,97,0.00,,,0.00,meteohub,2013-03-09 18:14:00,
2013-03-09 10:19:00,41.5,40.8,30.44,SSW,201,3.0,6.0,97,0.00,,,0.00,meteohub,2013-03-09 18:19:00,
2013-03-09 10:24:00,41.7,40.5,30.44,SSW,197,0.0,4.0,95,0.00,,,0.00,meteohub,2013-03-09 18:24:00,
2013-03-09 10:29:00,41.7,40.1,30.44,East,95,4.0,4.0,94,0.00,,,0.00,meteohub,2013-03-09 18:29:00,
2013-03-09 10:34:00,42.4,41.2,30.44,East,100,4.0,5.0,95,0.00,,,0.00,meteohub,2013-03-09 18:34:00,
2013-03-09 10:39:00,43.0,41.7,30.44,East,99,4.0,5.0,95,0.00,,,0.00,meteohub,2013-03-09 18:39:00,
2013-03-09 10:44:00,42.6,39.4,30.44,ESE,110,4.0,5.0,88,0.00,,,0.00,meteohub,2013-03-09 18:44:00,
2013-03-09 10:49:00,43.3,39.2,30.44,ESE,103,3.0,5.0,85,0.00,,,0.00,meteohub,2013-03-09 18:49:00,
2013-03-09 10:54:00,44.4,40.5,30.47,East,87,4.0,5.0,86,0.00,,,0.00,meteohub,2013-03-09 18:54:00,
2013-03-09 10:59:00,45.1,36.3,30.47,East,97,3.0,4.0,71,0.00,,,0.00,meteohub,2013-03-09 18:59:00,
2013-03-09 11:04:00,46.2,34.7,30.47,East,81,4.0,4.0,64,0.00,,,0.00,meteohub,2013-03-09 19:04:00,
2013-03-09 11:09:00,46.8,31.5,30.47,East,82,4.0,4.0,55,0.00,,,0.00,meteohub,2013-03-09 19:09:00,
2013-03-09 11:14:00,47.3,30.0,30.47,ESE,113,3.0,4.0,51,0.00,,,0.00,meteohub,2013-03-09 19:14:00,
2013-03-09 11:19:00,47.7,30.4,30.47,East,84,3.0,4.0,51,0.00,,,0.00,meteohub,2013-03-09 19:19:00,
2013-03-09 11:24:00,49.1,31.8,30.44,East,98,4.0,4.0,51,0.00,,,0.00,meteohub,2013-03-09 19:24:00,
2013-03-09 11:29:00,48.7,26.6,30.44,SE,137,3.0,4.0,42,0.00,,,0.00,meteohub,2013-03-09 19:29:00,
2013-03-09 11:34:00,48.4,27.5,30.44,SE,137,4.0,4.0,44,0.00,,,0.00,meteohub,2013-03-09 19:34:00,
2013-03-09 11:39:00,48.2,27.9,30.47,SE,141,3.0,4.0,45,0.00,,,0.00,meteohub,2013-03-09 19:39:00,
2013-03-09 11:44:00,48.0,29.3,30.47,ESE,120,5.0,5.0,48,0.00,,,0.00,meteohub,2013-03-09 19:44:00,
2013-03-09 11:49:00,48.0,29.3,30.47,ESE,123,5.0,5.0,48,0.00,,,0.00,meteohub,2013-03-09 19:49:00,
2013-03-09 11:54:00,47.3,29.1,30.47,ESE,120,5.0,6.0,49,0.00,,,0.00,meteohub,2013-03-09 19:54:00,
2013-03-09 11:59:00,47.1,28.9,30.47,SE,132,4.0,6.0,49,0.00,,,0.00,meteohub,2013-03-09 19:59:00,
2013-03-09 12:04:00,47.1,30.9,30.47,SE,131,6.0,6.0,53,0.00,,,0.00,meteohub,2013-03-09 20:04:00,
2013-03-09 12:09:00,47.8,30.0,30.47,ESE,119,5.0,6.0,50,0.00,,,0.00,meteohub,2013-03-09 20:09:00,
2013-03-09 12:14:00,46.9,30.7,30.47,ESE,117,5.0,7.0,53,0.00,,,0.00,meteohub,2013-03-09 20:14:00,
2013-03-09 12:20:00,46.6,30.4,30.47,ESE,117,4.0,7.0,53,0.00,,,0.00,meteohub,2013-03-09 20:20:00,
2013-03-09 12:25:00,47.3,32.4,30.47,WSW,252,0.0,7.0,56,0.00,,,0.00,meteohub,2013-03-09 20:25:00,
2013-03-09 12:30:00,47.1,31.8,30.47,East,99,4.0,6.0,55,0.00,,,0.00,meteohub,2013-03-09 20:30:00,
2013-03-09 12:35:00,47.3,31.1,30.47,SW,223,0.0,6.0,53,0.00,,,0.00,meteohub,2013-03-09 20:35:00,
2013-03-09 12:40:00,46.8,32.4,30.47,ESE,116,5.0,5.0,57,0.00,,,0.00,meteohub,2013-03-09 20:40:00,
2013-03-09 12:45:00,46.9,32.0,30.47,ESE,122,5.0,5.0,56,0.00,,,0.00,meteohub,2013-03-09 20:45:00,
2013-03-09 12:50:00,47.3,32.9,30.47,SE,125,6.0,6.0,57,0.00,,,0.00,meteohub,2013-03-09 20:50:00,
2013-03-09 12:55:00,46.6,32.2,30.47,ESE,118,3.0,6.0,57,0.00,,,0.00,meteohub,2013-03-09 20:55:00,
2013-03-09 13:00:00,47.3,33.3,30.47,ESE,115,3.0,6.0,58,0.00,,,0.00,meteohub,2013-03-09 21:00:00,
2013-03-09 13:05:00,47.5,33.1,30.47,ESE,108,5.0,6.0,57,0.00,,,0.00,meteohub,2013-03-09 21:05:00,
2013-03-09 13:10:00,47.5,32.5,30.47,ESE,121,5.0,6.0,56,0.00,,,0.00,meteohub,2013-03-09 21:10:00,
2013-03-09 13:15:00,46.9,32.5,30.47,ESE,106,5.0,6.0,57,0.00,,,0.00,meteohub,2013-03-09 21:15:00,
2013-03-09 13:20:00,47.1,34.3,30.47,ESE,123,2.0,6.0,61,0.00,,,0.00,meteohub,2013-03-09 21:20:00,
2013-03-09 13:25:00,47.3,33.3,30.44,East,93,3.0,6.0,58,0.00,,,0.00,meteohub,2013-03-09 21:25:00,
2013-03-09 13:30:00,47.3,34.5,30.44,South,171,3.0,5.0,61,0.00,,,0.00,meteohub,2013-03-09 21:30:00,
2013-03-09 13:35:00,47.3,34.9,30.44,SE,129,3.0,4.0,62,0.00,,,0.00,meteohub,2013-03-09 21:35:00,
2013-03-09 13:40:00,46.9,35.8,30.44,SSW,195,3.0,5.0,65,0.00,,,0.00,meteohub,2013-03-09 21:40:00,
2013-03-09 13:45:00,47.3,36.5,30.44,SW,215,4.0,5.0,66,0.00,,,0.00,meteohub,2013-03-09 21:45:00,
2013-03-09 13:50:00,47.8,35.4,30.44,SSE,157,3.0,4.0,62,0.00,,,0.00,meteohub,2013-03-09 21:50:00,
2013-03-09 13:55:00,48.4,32.9,30.44,SSE,164,3.0,4.0,55,0.00,,,0.00,meteohub,2013-03-09 21:55:00,
2013-03-09 14:00:00,48.2,33.3,30.44,SW,216,0.0,4.0,56,0.00,,,0.00,meteohub,2013-03-09 22:00:00,
2013-03-09 14:05:00,48.0,36.5,30.44,South,181,4.0,5.0,64,0.00,,,0.00,meteohub,2013-03-09 22:05:00,
2013-03-09 14:10:00,47.8,37.4,30.44,South,186,2.0,5.0,67,0.00,,,0.00,meteohub,2013-03-09 22:10:00,
2013-03-09 14:15:00,47.8,37.0,30.44,SE,133,3.0,4.0,66,0.00,,,0.00,meteohub,2013-03-09 22:15:00,
2013-03-09 14:20:00,47.5,36.7,30.44,SSW,196,3.0,4.0,66,0.00,,,0.00,meteohub,2013-03-09 22:20:00,
2013-03-09 14:25:00,48.0,36.0,30.44,SE,133,3.0,4.0,63,0.00,,,0.00,meteohub,2013-03-09 22:25:00,
2013-03-09 14:30:00,48.4,34.3,30.44,SE,135,3.0,4.0,58,0.00,,,0.00,meteohub,2013-03-09 22:30:00,
2013-03-09 14:35:00,48.7,32.9,30.44,SSE,166,4.0,5.0,54,0.00,,,0.00,meteohub,2013-03-09 22:35:00,
2013-03-09 14:40:00,48.6,30.7,30.44,SE,128,4.0,6.0,50,0.00,,,0.00,meteohub,2013-03-09 22:40:00,
2013-03-09 14:45:00,48.9,29.7,30.44,SSE,148,5.0,6.0,47,0.00,,,0.00,meteohub,2013-03-09 22:45:00,
2013-03-09 14:50:00,49.5,27.9,30.44,SSE,152,4.0,6.0,43,0.00,,,0.00,meteohub,2013-03-09 22:50:00,
2013-03-09 14:55:00,50.0,27.9,30.44,ESE,120,2.0,6.0,42,0.00,,,0.00,meteohub,2013-03-09 22:55:00,
2013-03-09 15:00:00,50.2,29.1,30.44,SE,126,5.0,6.0,44,0.00,,,0.00,meteohub,2013-03-09 23:00:00,
2013-03-09 15:05:00,49.8,28.2,30.44,SSE,156,4.0,6.0,43,0.00,,,0.00,meteohub,2013-03-09 23:05:00,
2013-03-09 15:10:00,49.5,25.5,30.44,South,185,2.0,6.0,39,0.00,,,0.00,meteohub,2013-03-09 23:10:00,
2013-03-09 15:15:00,49.5,25.0,30.44,SSE,156,3.0,5.0,38,0.00,,,0.00,meteohub,2013-03-09 23:15:00,
2013-03-09 15:20:00,49.5,25.0,30.44,SSW,196,5.0,5.0,38,0.00,,,0.00,meteohub,2013-03-09 23:20:00,
2013-03-09 15:25:00,49.6,25.0,30.44,SE,146,3.0,5.0,38,0.00,,,0.00,meteohub,2013-03-09 23:25:00,
2013-03-09 15:30:00,49.8,23.2,30.44,SSW,197,3.0,5.0,35,0.00,,,0.00,meteohub,2013-03-09 23:30:00,
2013-03-09 15:35:00,50.2,23.5,30.44,SE,146,4.0,5.0,35,0.00,,,0.00,meteohub,2013-03-09 23:35:00,
2013-03-09 15:40:00,50.4,24.4,30.44,SSE,149,6.0,6.0,36,0.00,,,0.00,meteohub,2013-03-09 23:40:00,
2013-03-09 15:45:00,50.2,23.5,30.44,SSW,209,4.0,7.0,35,0.00,,,0.00,meteohub,2013-03-09 23:45:00,
2013-03-09 15:50:00,50.2,24.3,30.44,SW,229,3.0,7.0,36,0.00,,,0.00,meteohub,2013-03-09 23:50:00,
2013-03-09 15:55:00,50.4,24.4,30.44,SSE,149,3.0,6.0,36,0.00,,,0.00,meteohub,2013-03-09 23:55:00,
2013-03-09 16:00:00,50.4,23.7,30.44,SE,143,3.0,4.0,35,0.00,,,0.00,meteohub,2013-03-10 00:00:00,
2013-03-09 16:05:00,50.4,24.4,30.44,SE,137,2.0,4.0,36,0.00,,,0.00,meteohub,2013-03-10 00:05:00,
2013-03-09 16:10:00,50.2,24.3,30.44,SSE,163,6.0,6.0,36,0.00,,,0.00,meteohub,2013-03-10 00:10:00,
2013-03-09 16:15:00,50.2,22.1,30.44,SSE,155,3.0,6.0,33,0.00,,,0.00,meteohub,2013-03-10 00:15:00,
2013-03-09 16:20:00,50.2,23.5,30.44,SW,218,6.0,6.0,35,0.00,,,0.00,meteohub,2013-03-10 00:20:00,
2013-03-09 16:25:00,50.2,23.5,30.44,SE,128,4.0,6.0,35,0.00,,,0.00,meteohub,2013-03-10 00:25:00,
2013-03-09 16:30:00,50.0,25.3,30.44,SSW,199,0.0,6.0,38,0.00,,,0.00,meteohub,2013-03-10 00:30:00,
2013-03-09 16:35:00,50.2,24.3,30.44,South,186,3.0,6.0,36,0.00,,,0.00,meteohub,2013-03-10 00:35:00,
2013-03-09 16:40:00,50.0,24.1,30.44,SE,144,3.0,6.0,36,0.00,,,0.00,meteohub,2013-03-10 00:40:00,
2013-03-09 16:45:00,49.5,25.0,30.44,SSW,212,3.0,5.0,38,0.00,,,0.00,meteohub,2013-03-10 00:45:00,
2013-03-09 16:50:00,48.9,25.0,30.44,SSW,212,3.0,4.0,39,0.00,,,0.00,meteohub,2013-03-10 00:50:00,
2013-03-09 16:55:00,48.7,24.8,30.44,SSW,212,3.0,4.0,39,0.00,,,0.00,meteohub,2013-03-10 00:55:00,
2013-03-09 17:00:00,48.6,25.3,30.44,SSE,154,3.0,4.0,40,0.00,,,0.00,meteohub,2013-03-10 01:00:00,
2013-03-09 17:05:00,49.1,24.6,30.44,SSE,154,3.0,4.0,38,0.00,,,0.00,meteohub,2013-03-10 01:05:00,
2013-03-09 17:10:00,49.6,24.4,30.44,SSE,166,0.0,4.0,37,0.00,,,0.00,meteohub,2013-03-10 01:10:00,
2013-03-09 17:15:00,49.5,25.5,30.44,SSE,166,0.0,4.0,39,0.00,,,0.00,meteohub,2013-03-10 01:15:00,
2013-03-09 17:20:00,49.1,26.4,30.44,NW,323,0.0,4.0,41,0.00,,,0.00,meteohub,2013-03-10 01:20:00,
2013-03-09 17:25:00,48.9,27.3,30.44,North,353,0.0,3.0,43,0.00,,,0.00,meteohub,2013-03-10 01:25:00,
2013-03-09 17:30:00,48.6,27.1,30.44,North,353,0.0,0.0,43,0.00,,,0.00,meteohub,2013-03-10 01:30:00,
2013-03-09 17:35:00,48.2,27.9,30.44,North,353,0.0,0.0,45,0.00,,,0.00,meteohub,2013-03-10 01:35:00,
2013-03-09 17:40:00,47.8,28.6,30.44,North,353,0.0,0.0,47,0.00,,,0.00,meteohub,2013-03-10 01:40:00,
2013-03-09 17:45:00,47.7,28.4,30.44,North,353,0.0,0.0,47,0.00,,,0.00,meteohub,2013-03-10 01:45:00,
2013-03-09 17:50:00,47.5,28.2,30.44,North,353,0.0,0.0,47,0.00,,,0.00,meteohub,2013-03-10 01:50:00,
2013-03-09 17:55:00,47.1,28.4,30.47,North,353,0.0,0.0,48,0.00,,,0.00,meteohub,2013-03-10 01:55:00,
2013-03-09 18:00:00,46.9,28.2,30.47,North,353,0.0,0.0,48,0.00,,,0.00,meteohub,2013-03-10 02:00:00,
2013-03-09 18:06:00,46.8,30.0,30.47,North,353,0.0,0.0,52,0.00,,,0.00,meteohub,2013-03-10 02:06:00,
2013-03-09 18:11:00,46.4,30.2,30.44,NNW,329,0.0,0.0,53,0.00,,,0.00,meteohub,2013-03-10 02:11:00,
2013-03-09 18:16:00,46.4,30.2,30.44,NW,319,0.0,0.0,53,0.00,,,0.00,meteohub,2013-03-10 02:16:00,
2013-03-09 18:21:00,46.2,30.6,30.44,NW,319,0.0,0.0,54,0.00,,,0.00,meteohub,2013-03-10 02:21:00,
2013-03-09 18:26:00,45.9,30.2,30.47,NW,319,0.0,0.0,54,0.00,,,0.00,meteohub,2013-03-10 02:26:00,
2013-03-09 18:31:00,45.5,30.2,30.47,NW,319,0.0,0.0,55,0.00,,,0.00,meteohub,2013-03-10 02:31:00,
2013-03-09 18:36:00,45.3,30.6,30.47,NW,319,0.0,0.0,56,0.00,,,0.00,meteohub,2013-03-10 02:36:00,
2013-03-09 18:41:00,45.1,31.3,30.47,NW,319,0.0,0.0,58,0.00,,,0.00,meteohub,2013-03-10 02:41:00,
2013-03-09 18:46:00,45.0,31.1,30.47,NW,319,0.0,0.0,58,0.00,,,0.00,meteohub,2013-03-10 02:46:00,
2013-03-09 18:51:00,44.8,32.2,30.47,NW,319,0.0,0.0,61,0.00,,,0.00,meteohub,2013-03-10 02:51:00,
2013-03-09 18:56:00,44.6,34.0,30.47,NW,319,0.0,0.0,66,0.00,,,0.00,meteohub,2013-03-10 02:56:00,
2013-03-09 19:01:00,44.2,34.0,30.47,NW,319,0.0,0.0,67,0.00,,,0.00,meteohub,2013-03-10 03:01:00,
2013-03-09 19:06:00,44.2,35.4,30.47,NW,319,0.0,0.0,71,0.00,,,0.00,meteohub,2013-03-10 03:06:00,
2013-03-09 19:11:00,44.1,36.3,30.47,NW,319,0.0,0.0,74,0.00,,,0.00,meteohub,2013-03-10 03:11:00,
2013-03-09 19:16:00,43.9,36.1,30.47,NW,319,0.0,0.0,74,0.00,,,0.00,meteohub,2013-03-10 03:16:00,
2013-03-09 19:21:00,43.7,36.0,30.47,NW,319,0.0,0.0,74,0.00,,,0.00,meteohub,2013-03-10 03:21:00,
2013-03-09 19:26:00,43.5,35.8,30.47,NW,319,0.0,0.0,74,0.00,,,0.00,meteohub,2013-03-10 03:26:00,
2013-03-09 19:31:00,43.3,35.6,30.47,NW,318,0.0,0.0,74,0.00,,,0.00,meteohub,2013-03-10 03:31:00,
2013-03-09 19:36:00,43.2,35.8,30.47,NW,319,0.0,0.0,75,0.00,,,0.00,meteohub,2013-03-10 03:36:00,
2013-03-09 19:41:00,43.2,35.8,30.50,NW,319,0.0,0.0,75,0.00,,,0.00,meteohub,2013-03-10 03:41:00,
2013-03-09 19:46:00,43.0,35.2,30.50,NW,319,0.0,0.0,74,0.00,,,0.00,meteohub,2013-03-10 03:46:00,
2013-03-09 19:51:00,43.0,35.6,30.50,NW,319,0.0,0.0,75,0.00,,,0.00,meteohub,2013-03-10 03:51:00,
2013-03-09 19:56:00,43.0,35.6,30.50,NW,319,0.0,0.0,75,0.00,,,0.00,meteohub,2013-03-10 03:56:00,
2013-03-09 20:01:00,42.8,35.4,30.50,NW,319,0.0,0.0,75,0.00,,,0.00,meteohub,2013-03-10 04:01:00,
2013-03-09 20:06:00,42.8,35.4,30.50,NW,318,0.0,0.0,75,0.00,,,0.00,meteohub,2013-03-10 04:06:00,
2013-03-09 20:11:00,42.4,35.8,30.50,NW,319,0.0,0.0,77,0.00,,,0.00,meteohub,2013-03-10 04:11:00,
2013-03-09 20:16:00,42.3,36.9,30.50,West,261,0.0,0.0,81,0.00,,,0.00,meteohub,2013-03-10 04:16:00,
2013-03-09 20:21:00,42.1,37.2,30.50,WNW,286,3.0,0.0,83,0.00,,,0.00,meteohub,2013-03-10 04:21:00,
2013-03-09 20:26:00,42.1,37.6,30.50,WNW,286,3.0,4.0,84,0.00,,,0.00,meteohub,2013-03-10 04:26:00,
2013-03-09 20:31:00,41.9,37.4,30.50,WNW,286,0.0,4.0,84,0.00,,,0.00,meteohub,2013-03-10 04:31:00,
2013-03-09 20:36:00,41.7,37.2,30.50,WNW,286,0.0,4.0,84,0.00,,,0.00,meteohub,2013-03-10 04:36:00,
2013-03-09 20:41:00,41.5,37.0,30.50,WNW,301,5.0,5.0,84,0.00,,,0.00,meteohub,2013-03-10 04:41:00,
2013-03-09 20:46:00,41.7,37.6,30.50,NNW,338,5.0,6.0,85,0.00,,,0.00,meteohub,2013-03-10 04:46:00,
2013-03-09 20:51:00,42.1,38.1,30.50,NW,305,4.0,6.0,86,0.00,,,0.00,meteohub,2013-03-10 04:51:00,
2013-03-09 20:56:00,42.3,38.1,30.50,NW,315,5.0,7.0,85,0.00,,,0.00,meteohub,2013-03-10 04:56:00,
2013-03-09 21:00:00,42.4,37.6,30.50,NNW,327,4.0,7.0,83,0.00,,,0.00,meteohub,2013-03-10 05:00:00,
2013-03-09 21:02:00,42.4,37.4,30.50,NNW,346,6.0,7.0,82,0.00,,,0.00,meteohub,2013-03-10 05:02:00,
2013-03-09 21:07:00,42.6,36.0,30.50,WNW,301,4.0,7.0,77,0.00,,,0.00,meteohub,2013-03-10 05:07:00,
2013-03-09 21:12:00,42.4,34.7,30.50,NW,325,4.0,6.0,74,0.00,,,0.00,meteohub,2013-03-10 05:12:00,
2013-03-09 21:17:00,42.4,34.7,30.50,North,353,3.0,6.0,74,0.00,,,0.00,meteohub,2013-03-10 05:17:00,
2013-03-09 21:22:00,42.1,34.3,30.50,North,353,0.0,6.0,74,0.00,,,0.00,meteohub,2013-03-10 05:22:00,
2013-03-09 21:27:00,41.9,35.2,30.50,WNW,286,4.0,6.0,77,0.00,,,0.00,meteohub,2013-03-10 05:27:00,
2013-03-09 21:32:00,41.5,35.8,30.50,NNW,339,4.0,4.0,80,0.00,,,0.00,meteohub,2013-03-10 05:32:00,
2013-03-09 21:37:00,41.4,36.0,30.50,NW,307,0.0,5.0,81,0.00,,,0.00,meteohub,2013-03-10 05:37:00,
2013-03-09 21:42:00,41.2,36.1,30.50,NW,312,3.0,5.0,82,0.00,,,0.00,meteohub,2013-03-10 05:42:00,
2013-03-09 21:47:00,41.0,36.3,30.50,NW,312,3.0,4.0,83,0.00,,,0.00,meteohub,2013-03-10 05:47:00,
2013-03-09 21:52:00,41.0,36.3,30.50,NW,321,4.0,4.0,83,0.00,,,0.00,meteohub,2013-03-10 05:52:00,
2013-03-09 21:57:00,40.6,36.1,30.50,NW,317,3.0,4.0,84,0.00,,,0.00,meteohub,2013-03-10 05:57:00,
2013-03-09 22:02:00,40.6,36.9,30.50,NW,317,0.0,4.0,86,0.00,,,0.00,meteohub,2013-03-10 06:02:00,
2013-03-09 22:07:00,40.8,37.2,30.50,NNW,342,4.0,6.0,87,0.00,,,0.00,meteohub,2013-03-10 06:07:00,
2013-03-09 22:12:00,40.8,37.6,30.50,NNW,332,3.0,6.0,88,0.00,,,0.00,meteohub,2013-03-10 06:12:00,
2013-03-09 22:17:00,40.6,37.0,30.50,NNW,340,0.0,6.0,87,0.00,,,0.00,meteohub,2013-03-10 06:17:00,
2013-03-09 22:22:00,40.5,37.2,30.50,WSW,244,0.0,5.0,88,0.00,,,0.00,meteohub,2013-03-10 06:22:00,
2013-03-09 22:27:00,40.5,37.4,30.50,WSW,244,0.0,4.0,89,0.00,,,0.00,meteohub,2013-03-10 06:27:00,
2013-03-09 22:32:00,40.3,37.2,30.50,WSW,244,0.0,0.0,89,0.00,,,0.00,meteohub,2013-03-10 06:32:00,
2013-03-09 22:37:00,40.3,37.6,30.50,WSW,244,3.0,4.0,90,0.00,,,0.00,meteohub,2013-03-10 06:37:00,
2013-03-09 22:42:00,40.1,37.4,30.50,WNW,291,4.0,4.0,90,0.00,,,0.00,meteohub,2013-03-10 06:42:00,
2013-03-09 22:47:00,40.1,37.8,30.50,WNW,291,3.0,4.0,91,0.00,,,0.00,meteohub,2013-03-10 06:47:00,
2013-03-09 22:52:00,39.9,37.8,30.50,West,259,3.0,4.0,92,0.00,,,0.00,meteohub,2013-03-10 06:52:00,
2013-03-09 22:57:00,39.7,37.9,30.50,West,259,3.0,4.0,93,0.00,,,0.00,meteohub,2013-03-10 06:57:00,
2013-03-09 23:02:00,39.7,37.9,30.50,West,259,0.0,4.0,93,0.00,,,0.00,meteohub,2013-03-10 07:02:00,
2013-03-09 23:07:00,39.7,37.9,30.50,West,259,0.0,4.0,93,0.00,,,0.00,meteohub,2013-03-10 07:07:00,
2013-03-09 23:12:00,39.6,37.8,30.50,West,259,0.0,3.0,93,0.00,,,0.00,meteohub,2013-03-10 07:12:00,
2013-03-09 23:17:00,39.4,37.6,30.50,West,259,0.0,0.0,93,0.00,,,0.00,meteohub,2013-03-10 07:17:00,
2013-03-09 23:22:00,39.2,37.4,30.50,West,259,0.0,0.0,93,0.00,,,0.00,meteohub,2013-03-10 07:22:00,
2013-03-09 23:27:00,39.2,37.6,30.50,West,259,0.0,0.0,94,0.00,,,0.00,meteohub,2013-03-10 07:27:00,
2013-03-09 23:32:00,39.2,37.6,30.50,West,259,0.0,0.0,94,0.00,,,0.00,meteohub,2013-03-10 07:32:00,
2013-03-09 23:37:00,39.2,37.6,30.50,West,259,0.0,0.0,94,0.00,,,0.00,meteohub,2013-03-10 07:37:00,
2013-03-09 23:42:00,39.2,37.6,30.50,WSW,258,0.0,0.0,94,0.00,,,0.00,meteohub,2013-03-10 07:42:00,
2013-03-09 23:47:00,39.0,37.4,30.50,West,259,0.0,0.0,94,0.00,,,0.00,meteohub,2013-03-10 07:47:00,
2013-03-09 23:52:00,38.8,37.6,30.50,West,259,0.0,0.0,95,0.00,,,0.00,meteohub,2013-03-10 07:52:00,
2013-03-09 23:57:00,38.8,37.6,30.50,West,259,0.0,0.0,95,0.00,,,0.00,meteohub,2013-03-10 07:57:00,